Time;durP1;ratioP1;P1;durP2;ratioP2;P2;SDS_P1;SDS_P2;PMS_P1;PMS_P2;Temp;Humidity;BMP_temperature;BMP_pressure;BME280_temperature;BME280_humidity;BME280_pressure;Samples;Min_cycle;Max_cycle;Signal;HPM_P1;HPM_P2
2021/06/13 00:00:48;;;;;;;2.25;1.57;;;;;;;13.22;100.00;100014.39;1715617;83;22024;-88
2021/06/13 00:03:15;;;;;;;2.75;1.77;;;;;;;13.21;100.00;100007.86;1723587;83;21033;-87
2021/06/13 00:05:41;;;;;;;2.92;1.60;;;;;;;13.18;100.00;100009.30;1723675;83;21048;-88
2021/06/13 00:08:10;;;;;;;4.65;2.05;;;;;;;13.16;100.00;99992.89;1723705;83;21031;-88
2021/06/13 00:10:36;;;;;;;4.53;2.12;;;;;;;13.14;100.00;100004.16;1711288;83;21015;-88
2021/06/13 00:13:05;;;;;;;3.27;1.62;;;;;;;13.13;100.00;100003.92;1703344;84;20988;-88
2021/06/13 00:15:31;;;;;;;2.30;2.10;;;;;;;13.08;100.00;100000.72;1703218;84;21058;-88
2021/06/13 00:17:57;;;;;;;3.15;1.77;;;;;;;13.04;100.00;99999.70;1722650;81;21020;-88
2021/06/13 00:20:26;;;;;;;2.42;2.05;;;;;;;13.01;100.00;99989.91;1712107;82;21491;-88
2021/06/13 00:22:52;;;;;;;3.02;1.75;;;;;;;12.97;100.00;99987.52;1709811;82;21002;-87
2021/06/13 00:25:19;;;;;;;1.98;1.35;;;;;;;12.95;100.00;99982.90;1710476;83;21018;-87
2021/06/13 00:27:47;;;;;;;1.72;1.55;;;;;;;12.91;100.00;99984.89;1692577;83;21017;-88
2021/06/13 00:30:15;;;;;;;2.72;1.75;;;;;;;12.90;100.00;99981.88;1708360;84;21033;-87
2021/06/13 00:32:42;;;;;;;3.47;1.55;;;;;;;12.90;100.00;99974.22;1708374;82;21040;-87
2021/06/13 00:35:09;;;;;;;2.55;1.95;;;;;;;12.89;100.00;99980.27;1708362;84;20997;-87
2021/06/13 00:37:36;;;;;;;3.30;1.57;;;;;;;12.88;100.00;99978.66;1701483;82;21007;-88
2021/06/13 00:40:04;;;;;;;2.45;2.00;;;;;;;12.87;100.00;99983.86;1691983;84;21423;-87
2021/06/13 00:42:32;;;;;;;1.90;1.42;;;;;;;12.87;100.00;99978.38;1691991;83;21033;-87
2021/06/13 00:44:59;;;;;;;2.50;1.35;;;;;;;12.86;100.00;99979.52;1665953;84;21437;-87
2021/06/13 00:47:25;;;;;;;1.35;1.25;;;;;;;12.85;100.00;99977.87;1703646;83;21410;-87
2021/06/13 00:49:54;;;;;;;2.17;1.20;;;;;;;12.82;100.00;99971.63;1681362;84;21020;-87
2021/06/13 00:52:25;;;;;;;1.67;1.52;;;;;;;12.80;100.00;99971.13;1708382;82;21006;-87
2021/06/13 00:54:55;;;;;;;3.20;1.67;;;;;;;12.79;100.00;99968.14;1677118;83;21022;-87
2021/06/13 00:57:23;;;;;;;2.80;1.55;;;;;;;12.77;100.00;99966.83;1708330;82;21503;-88
2021/06/13 00:59:53;;;;;;;1.40;1.05;;;;;;;12.74;100.00;99964.13;1680714;84;20997;-87
2021/06/13 01:02:19;;;;;;;1.98;1.30;;;;;;;12.73;100.00;99962.49;1708202;82;21037;-87
2021/06/13 01:04:46;;;;;;;2.55;1.70;;;;;;;12.72;100.00;99958.14;1679846;84;21070;-87
2021/06/13 01:07:27;;;;;;;2.10;1.77;;;;;;;12.73;100.00;99963.06;1708174;82;21033;-87
2021/06/13 01:10:15;;;;;;;3.17;1.32;;;;;;;12.69;100.00;99957.39;1708042;83;21005;-87
2021/06/13 01:13:20;;;;;;;1.32;1.22;;;;;;;12.68;100.00;99958.48;1707826;82;21037;-87
2021/06/13 01:16:04;;;;;;;1.22;0.88;;;;;;;12.66;100.00;99953.86;1692268;83;21026;-88
2021/06/13 01:18:54;;;;;;;1.85;1.35;;;;;;;12.62;100.00;99956.41;1675662;84;21018;-87
2021/06/13 01:21:28;;;;;;;1.27;1.17;;;;;;;12.58;100.00;99953.22;1664163;83;21045;-88
2021/06/13 01:24:20;;;;;;;2.80;1.45;;;;;;;12.54;100.00;99942.63;1711322;83;21005;-87
2021/06/13 01:27:16;;;;;;;2.52;1.60;;;;;;;12.48;100.00;99938.59;1720686;83;21481;-87
2021/06/13 01:29:47;;;;;;;2.55;1.27;;;;;;;12.45;100.00;99935.09;1720729;83;21029;-88
2021/06/13 01:32:21;;;;;;;;;;;;;;;12.43;100.00;99938.69;1719836;83;20997;-89
2021/06/13 01:34:56;;;;;;;1.90;1.50;;;;;;;12.44;100.00;99941.70;1685265;83;20525;-87
2021/06/13 01:37:25;;;;;;;2.85;1.67;;;;;;;12.44;100.00;99942.27;1711086;82;21001;-87
2021/06/13 01:39:59;;;;;;;1.37;1.27;;;;;;;12.47;100.00;99941.09;1683338;83;21009;-87
2021/06/13 01:42:26;;;;;;;;;;;;;;;12.46;100.00;99930.42;1684957;84;21847;-87
2021/06/13 01:45:00;;;;;;;1.02;0.95;;;;;;;12.43;100.00;99923.63;1703998;84;20150;-88
2021/06/13 01:47:28;;;;;;;2.02;1.12;;;;;;;12.41;100.00;99924.52;1708343;82;21009;-88
2021/06/13 01:49:58;;;;;;;1.15;1.05;;;;;;;12.40;100.00;99926.98;1638012;83;20981;-88
2021/06/13 01:52:28;;;;;;;1.27;1.20;;;;;;;12.39;100.00;99920.45;1694680;83;21408;-87
2021/06/13 01:54:56;;;;;;;1.70;1.27;;;;;;;12.37;100.00;99919.38;1659332;83;20997;-87
2021/06/13 01:57:23;;;;;;;2.35;1.52;;;;;;;12.33;100.00;99923.83;1694696;83;21011;-87
2021/06/13 01:59:57;;;;;;;1.52;1.22;;;;;;;12.30;100.00;99923.08;1704362;83;20993;-88
2021/06/13 02:02:24;;;;;;;3.95;2.12;;;;;;;12.27;100.00;99920.95;1718339;81;21400;-87
2021/06/13 02:04:51;;;;;;;1.65;1.35;;;;;;;12.26;100.00;99916.56;1693951;83;21408;-87
2021/06/13 02:07:17;;;;;;;3.90;1.42;;;;;;;12.27;100.00;99916.84;1717543;82;20971;-88
2021/06/13 02:09:49;;;;;;;1.52;1.42;;;;;;;12.27;100.00;99909.99;1669705;83;21014;-87
2021/06/13 02:12:16;;;;;;;2.20;1.62;;;;;;;12.30;100.00;99908.00;1716648;82;21602;-88
2021/06/13 02:14:49;;;;;;;1.90;1.72;;;;;;;12.31;100.00;99902.77;1723438;83;21003;-87
2021/06/13 02:17:17;;;;;;;2.45;1.35;;;;;;;12.36;100.00;99898.55;1699355;83;20992;-87
2021/06/13 02:19:46;;;;;;;1.80;1.20;;;;;;;12.42;100.00;99906.14;1723569;83;21015;-87
2021/06/13 02:22:18;;;;;;;4.15;1.65;;;;;;;12.50;100.00;99893.65;1700247;83;21007;-88
2021/06/13 02:24:46;;;;;;;1.50;0.95;;;;;;;12.57;100.00;99892.68;1724131;82;21027;-87
2021/06/13 02:27:15;;;;;;;1.55;1.20;;;;;;;12.64;100.00;99884.86;1724113;83;21044;-87
2021/06/13 02:29:46;;;;;;;4.30;1.85;;;;;;;12.73;100.00;99885.73;1724144;82;21059;-88
2021/06/13 02:32:13;;;;;;;4.30;1.67;;;;;;;12.82;100.00;99886.64;1699449;83;21027;-87
2021/06/13 02:34:44;;;;;;;2.27;2.05;;;;;;;12.89;100.00;99884.29;1721151;83;21003;-88
2021/06/13 02:37:16;;;;;;;4.53;1.82;;;;;;;12.99;100.00;99881.08;1703963;83;21570;-87
2021/06/13 02:39:43;;;;;;;1.90;1.42;;;;;;;13.10;100.00;99880.53;1672820;84;21474;-88
2021/06/13 02:42:12;;;;;;;2.98;1.60;;;;;;;13.22;100.00;99882.70;1694082;84;20890;-87
2021/06/13 02:44:40;;;;;;;2.58;1.40;;;;;;;13.32;100.00;99871.52;1696494;83;21511;-88
2021/06/13 02:47:06;;;;;;;1.57;1.47;;;;;;;13.45;100.00;99876.71;1723845;83;20971;-88
2021/06/13 02:49:33;;;;;;;1.67;1.20;;;;;;;13.56;100.00;99870.39;1724159;83;21000;-88
2021/06/13 02:52:20;;;;;;;1.60;1.40;;;;;;;13.70;100.00;99881.31;1724206;82;21533;-88
2021/06/13 02:54:49;;;;;;;3.42;1.32;;;;;;;13.82;100.00;99865.03;1699969;83;21033;-88
2021/06/13 02:57:29;;;;;;;2.00;1.25;;;;;;;13.97;100.00;99870.69;1694760;84;21005;-88
2021/06/13 02:59:59;;;;;;;1.82;1.25;;;;;;;14.10;100.00;99861.55;1695786;84;21069;-87
2021/06/13 03:02:30;;;;;;;1.87;1.62;;;;;;;14.30;100.00;99859.36;1659350;84;21112;-87
2021/06/13 03:05:00;;;;;;;6.05;1.60;;;;;;;14.51;100.00;99859.56;1708283;83;21077;-88
2021/06/13 03:07:27;;;;;;;2.58;1.80;;;;;;;14.72;100.00;99857.86;1711246;82;21033;-87
2021/06/13 03:09:54;;;;;;;2.02;1.20;;;;;;;14.93;100.00;99851.16;1673458;83;21036;-87
2021/06/13 03:12:22;;;;;;;1.67;1.20;;;;;;;15.14;100.00;99854.08;1691425;83;21076;-88
2021/06/13 03:14:52;;;;;;;2.37;1.75;;;;;;;15.36;100.00;99857.23;1672245;84;21451;-87
2021/06/13 03:17:19;;;;;;;1.55;1.42;;;;;;;15.58;100.00;99851.26;1705855;82;21383;-88
2021/06/13 03:19:47;;;;;;;1.92;1.27;;;;;;;15.78;100.00;99854.74;1694913;83;21420;-87
2021/06/13 03:22:14;;;;;;;2.60;1.55;;;;;;;15.98;100.00;99855.16;1694536;83;21004;-88
2021/06/13 03:24:41;;;;;;;1.20;1.10;;;;;;;16.19;100.00;99850.52;1723777;83;21044;-87
2021/06/13 03:27:17;;;;;;;1.60;1.50;;;;;;;16.39;100.00;99849.53;1723838;81;21005;-88
2021/06/13 03:29:40;;;;;;;2.12;1.15;;;;;;;16.58;100.00;99850.48;1721743;83;20984;-88
2021/06/13 03:32:14;;;;;;;1.25;1.02;;;;;;;16.77;100.00;99845.33;1722707;83;21020;-87
2021/06/13 03:34:41;;;;;;;3.15;1.57;;;;;;;16.96;100.00;99842.11;1723772;83;21602;-88
2021/06/13 03:37:09;;;;;;;1.05;0.95;;;;;;;17.14;100.00;99835.31;1723403;81;21496;-87
2021/06/13 03:39:37;;;;;;;2.30;1.35;;;;;;;17.33;100.00;99836.76;1723293;83;21000;-87
2021/06/13 03:42:05;;;;;;;1.32;0.80;;;;;;;17.49;100.00;99834.98;1698066;83;21511;-87
2021/06/13 03:44:32;;;;;;;2.25;1.52;;;;;;;17.69;99.89;99832.50;1698398;84;21458;-87
2021/06/13 03:46:59;;;;;;;1.10;0.88;;;;;;;17.86;98.27;99828.77;1670232;84;21002;-86
2021/06/13 03:49:25;;;;;;;3.10;1.50;;;;;;;18.02;95.95;99828.31;1690868;83;21030;-88
2021/06/13 03:51:53;;;;;;;1.42;1.25;;;;;;;18.20;94.51;99828.88;1667142;86;21034;-87
2021/06/13 03:54:19;;;;;;;1.65;1.25;;;;;;;18.34;92.86;99827.96;1667173;86;20966;-87
2021/06/13 03:56:59;;;;;;;2.30;1.30;;;;;;;18.50;91.29;99825.31;1649255;86;21022;-87
2021/06/13 03:59:29;;;;;;;1.67;1.10;;;;;;;18.66;89.38;99827.58;1699696;83;21491;-87
2021/06/13 04:01:57;;;;;;;1.40;1.12;;;;;;;18.82;87.56;99829.09;1710600;82;21002;-87
2021/06/13 04:04:24;;;;;;;2.05;0.80;;;;;;;18.97;86.31;99826.75;1710637;83;21560;-88
2021/06/13 04:06:53;;;;;;;1.17;1.05;;;;;;;19.11;84.83;99831.28;1708843;82;21002;-87
2021/06/13 04:09:20;;;;;;;1.95;1.20;;;;;;;19.24;82.72;99828.72;1724630;83;21049;-88
2021/06/13 04:11:47;;;;;;;1.90;1.07;;;;;;;19.38;81.58;99820.56;1700780;83;21057;-88
2021/06/13 04:14:15;;;;;;;1.75;1.10;;;;;;;19.50;80.45;99820.50;1725784;83;21029;-87
2021/06/13 04:16:44;;;;;;;1.05;0.95;;;;;;;19.63;79.78;99827.58;1724172;81;21009;-88
2021/06/13 04:19:11;;;;;;;1.67;1.57;;;;;;;19.75;79.04;99823.37;1694578;83;21009;-87
2021/06/13 04:21:41;;;;;;;1.65;1.25;;;;;;;19.87;78.47;99815.56;1720831;83;21483;-87
2021/06/13 04:24:12;;;;;;;1.37;1.20;;;;;;;20.02;77.50;99822.27;1680305;84;21017;-87
2021/06/13 04:26:39;;;;;;;1.45;1.25;;;;;;;20.14;77.19;99823.56;1710418;82;21467;-87
2021/06/13 04:29:06;;;;;;;6.10;1.25;;;;;;;20.28;76.55;99812.60;1684772;83;21392;-87
2021/06/13 04:31:32;;;;;;;2.15;1.50;;;;;;;20.39;76.31;99811.66;1711759;82;21016;-87
2021/06/13 04:33:59;;;;;;;1.42;1.20;;;;;;;20.56;75.35;99818.83;1711457;83;21025;-87
2021/06/13 04:36:25;;;;;;;1.95;1.20;;;;;;;20.70;74.44;99816.16;1719695;83;21333;-87
2021/06/13 04:38:52;;;;;;;3.50;1.40;;;;;;;20.82;73.56;99809.89;1720635;83;21029;-87
2021/06/13 04:41:19;;;;;;;2.05;1.20;;;;;;;20.95;72.64;99808.36;1711017;83;21441;-87
2021/06/13 04:43:46;;;;;;;1.77;0.95;;;;;;;21.08;71.73;99815.95;1711010;83;21017;-87
2021/06/13 04:46:17;;;;;;;1.65;1.15;;;;;;;21.20;71.14;99810.25;1711299;82;20918;-87
2021/06/13 04:48:42;;;;;;;1.45;1.35;;;;;;;21.32;70.92;99803.15;1711134;83;21416;-87
2021/06/13 04:51:11;;;;;;;1.12;0.90;;;;;;;21.46;70.86;99811.80;1708634;82;21018;-87
2021/06/13 04:53:56;;;;;;;1.27;1.15;;;;;;;21.60;70.76;99808.45;1715160;83;21033;-88
2021/06/13 04:57:06;;;;;;;1.40;1.10;;;;;;;21.74;69.33;99810.70;1725813;82;21037;-87
2021/06/13 04:59:33;;;;;;;2.42;1.17;;;;;;;21.89;69.38;99813.94;1745809;82;21002;-87
2021/06/13 05:02:00;;;;;;;2.42;1.37;;;;;;;22.06;67.35;99811.25;1743604;82;20958;-87
2021/06/13 05:04:28;;;;;;;1.45;1.15;;;;;;;22.17;66.61;99814.19;1724565;83;21474;-87
2021/06/13 05:06:57;;;;;;;2.20;1.40;;;;;;;22.31;66.40;99813.05;1694677;83;21490;-87
2021/06/13 05:09:23;;;;;;;1.45;1.35;;;;;;;22.43;66.29;99809.86;1731997;82;20985;-86
2021/06/13 05:11:50;;;;;;;1.92;1.40;;;;;;;22.57;65.42;99801.69;1719577;81;21001;-87
2021/06/13 05:14:16;;;;;;;1.15;1.00;;;;;;;22.70;66.61;99811.44;1705433;83;21009;-86
2021/06/13 05:16:42;;;;;;;2.40;1.52;;;;;;;22.84;65.77;99808.63;1684408;83;21529;-87
2021/06/13 05:19:09;;;;;;;2.40;1.15;;;;;;;22.98;64.89;99807.45;1711083;83;21029;-87
2021/06/13 05:21:36;;;;;;;1.45;0.85;;;;;;;23.13;64.08;99802.25;1710988;82;21435;-87
2021/06/13 05:24:05;;;;;;;2.67;1.75;;;;;;;23.28;63.36;99802.42;1711040;83;21013;-87
2021/06/13 05:26:32;;;;;;;1.70;1.30;;;;;;;23.42;62.73;99805.38;1711172;82;21434;-88
2021/06/13 05:28:59;;;;;;;1.55;1.05;;;;;;;23.55;62.11;99805.30;1711079;83;21006;-87
2021/06/13 05:31:26;;;;;;;2.12;1.35;;;;;;;23.71;62.07;99805.05;1721082;81;21010;-87
2021/06/13 05:33:52;;;;;;;2.05;1.47;;;;;;;23.84;61.88;99797.24;1720790;83;21011;-87
2021/06/13 05:36:24;;;;;;;3.65;1.75;;;;;;;23.99;59.98;99798.96;1720747;82;21488;-88
2021/06/13 05:38:49;;;;;;;1.85;1.32;;;;;;;24.12;59.28;99798.66;1718729;83;21456;-88
2021/06/13 05:41:15;;;;;;;2.02;1.80;;;;;;;24.24;59.66;99798.35;1711433;82;21028;-88
2021/06/13 05:43:42;;;;;;;1.85;1.22;;;;;;;24.33;58.89;99804.41;1711469;83;21021;-87
2021/06/13 05:46:11;;;;;;;1.87;1.25;;;;;;;24.44;58.56;99796.89;1711634;82;21012;-88
2021/06/13 05:48:37;;;;;;;1.30;0.93;;;;;;;24.56;59.06;99795.80;1693411;83;20992;-88
2021/06/13 05:51:06;;;;;;;1.95;1.20;;;;;;;24.67;58.33;99801.44;1691183;84;33688;-88
2021/06/13 05:53:33;;;;;;;1.30;1.15;;;;;;;24.80;57.99;99797.70;1694083;84;21012;-87
2021/06/13 05:56:02;;;;;;;0.98;0.93;;;;;;;24.95;56.11;99797.17;1693722;84;21155;-88
2021/06/13 05:58:30;;;;;;;2.10;1.32;;;;;;;25.06;55.80;99803.62;1694055;84;20992;-88
2021/06/13 06:00:57;;;;;;;1.82;1.37;;;;;;;25.15;56.30;99804.06;1689830;84;21034;-88
2021/06/13 06:03:23;;;;;;;1.65;1.55;;;;;;;25.27;55.59;99798.14;1697527;84;21004;-88
2021/06/13 06:05:51;;;;;;;1.40;1.30;;;;;;;25.37;56.02;99798.54;1741162;82;21037;-89
2021/06/13 06:08:18;;;;;;;1.82;1.60;;;;;;;25.48;56.72;99788.98;1747319;81;21443;-87
2021/06/13 06:10:45;;;;;;;1.65;1.40;;;;;;;25.57;54.66;99799.80;1726798;81;20999;-87
2021/06/13 06:13:12;;;;;;;1.67;1.32;;;;;;;25.67;53.35;99796.22;1726072;83;21021;-88
2021/06/13 06:15:41;;;;;;;1.32;1.22;;;;;;;25.76;53.53;99800.00;1725615;81;21057;-87
2021/06/13 06:18:07;;;;;;;2.02;1.67;;;;;;;25.87;53.83;99800.06;1725503;82;21016;-87
2021/06/13 06:20:37;;;;;;;2.25;1.35;;;;;;;25.98;54.79;99796.66;1725555;83;21034;-85
2021/06/13 06:23:05;;;;;;;1.95;1.47;;;;;;;26.05;52.88;99791.05;1719032;82;21014;-87
2021/06/13 06:25:32;;;;;;;1.92;1.32;;;;;;;26.13;51.08;99787.04;1714485;83;21018;-87
2021/06/13 06:27:59;;;;;;;1.30;1.17;;;;;;;26.23;50.83;99787.44;1676368;83;21029;-86
2021/06/13 06:30:27;;;;;;;1.72;1.02;;;;;;;26.31;50.53;99794.63;1720392;83;21018;-87
2021/06/13 06:32:53;;;;;;;2.83;1.40;;;;;;;26.38;50.75;99787.61;1720654;82;21175;-87
2021/06/13 06:35:20;;;;;;;2.87;1.52;;;;;;;26.43;51.11;99785.80;1721078;83;21400;-87
2021/06/13 06:37:46;;;;;;;3.05;1.72;;;;;;;26.48;50.74;99782.58;1720530;82;21002;-87
2021/06/13 06:40:15;;;;;;;3.65;1.60;;;;;;;26.57;50.90;99780.20;1730697;83;21028;-88
2021/06/13 06:42:43;;;;;;;1.55;1.32;;;;;;;26.63;50.81;99774.97;1728755;81;20989;-87
2021/06/13 06:45:12;;;;;;;2.02;1.25;;;;;;;26.74;49.97;99779.16;1702049;83;21013;-87
2021/06/13 06:47:44;;;;;;;1.27;1.10;;;;;;;26.74;49.76;99767.95;1728119;81;21537;-88
2021/06/13 06:50:13;;;;;;;1.65;1.07;;;;;;;26.72;49.43;99777.36;1729218;82;20932;-88
2021/06/13 06:52:40;;;;;;;1.50;1.10;;;;;;;26.79;48.70;99771.73;1728816;81;21091;-87
2021/06/13 06:55:07;;;;;;;1.07;0.88;;;;;;;26.86;48.21;99777.31;1728698;83;20998;-87
2021/06/13 06:57:35;;;;;;;1.65;1.27;;;;;;;26.89;48.28;99772.28;1728954;81;21457;-87
2021/06/13 07:00:05;;;;;;;1.22;1.00;;;;;;;26.94;48.11;99770.45;1728745;83;21437;-87
2021/06/13 07:02:34;;;;;;;2.30;1.45;;;;;;;26.99;48.55;99765.83;1727129;81;21518;-87
2021/06/13 07:05:01;;;;;;;1.40;1.27;;;;;;;27.07;49.10;99772.80;1730241;82;20985;-87
2021/06/13 07:07:27;;;;;;;1.90;1.17;;;;;;;27.20;49.50;99767.77;1707668;81;20977;-87
2021/06/13 07:09:54;;;;;;;3.30;1.25;;;;;;;27.31;49.55;99766.29;1699503;84;21000;-87
2021/06/13 07:12:20;;;;;;;1.20;1.10;;;;;;;27.34;49.08;99759.86;1705961;83;20993;-87
2021/06/13 07:14:50;;;;;;;1.85;1.60;;;;;;;27.35;49.41;99757.84;1728442;82;21057;-87
2021/06/13 07:17:15;;;;;;;1.00;0.95;;;;;;;27.35;48.76;99762.88;1720939;81;21052;-86
2021/06/13 07:19:42;;;;;;;1.12;1.00;;;;;;;27.39;48.87;99753.81;1673883;84;21028;-87
2021/06/13 07:22:09;;;;;;;1.20;1.10;;;;;;;27.34;48.70;99757.05;1699791;83;21675;-87
2021/06/13 07:24:35;;;;;;;2.35;1.42;;;;;;;27.23;47.79;99752.13;1699725;84;20981;-88
2021/06/13 07:27:04;;;;;;;1.82;1.10;;;;;;;27.07;47.61;99748.36;1673263;84;21013;-88
2021/06/13 07:29:30;;;;;;;1.42;0.82;;;;;;;26.91;46.58;99751.66;1710516;83;21017;-88
2021/06/13 07:31:57;;;;;;;2.72;1.57;;;;;;;26.74;46.66;99746.32;1728887;81;20996;-89
2021/06/13 07:34:24;;;;;;;0.90;0.82;;;;;;;26.57;46.14;99740.97;1702326;83;21016;-88
2021/06/13 07:36:52;;;;;;;1.45;1.00;;;;;;;26.36;46.31;99748.82;1719315;82;20965;-88
2021/06/13 07:39:19;;;;;;;1.20;0.70;;;;;;;26.21;46.86;99750.64;1728817;83;21036;-88
2021/06/13 07:41:45;;;;;;;0.95;0.95;;;;;;;26.05;47.17;99749.06;1728951;81;21027;-88
2021/06/13 07:44:13;;;;;;;1.05;0.95;;;;;;;25.96;47.43;99743.06;1729048;83;21012;-88
2021/06/13 07:46:42;;;;;;;0.93;0.82;;;;;;;25.88;47.89;99751.28;1728381;81;21083;-88
2021/06/13 07:49:08;;;;;;;2.37;0.90;;;;;;;25.78;47.50;99740.86;1702666;83;21709;-88
2021/06/13 07:51:35;;;;;;;1.20;0.78;;;;;;;25.67;47.62;99750.05;1728694;83;21459;-86
2021/06/13 07:54:01;;;;;;;1.07;0.98;;;;;;;25.58;47.73;99747.45;1727696;83;21059;-87
2021/06/13 07:56:31;;;;;;;1.55;1.15;;;;;;;25.48;48.09;99748.43;1727280;81;21090;-87
2021/06/13 07:58:56;;;;;;;1.25;0.95;;;;;;;25.39;48.53;99747.22;1727943;83;20991;-87
2021/06/13 08:01:23;;;;;;;1.10;0.78;;;;;;;25.39;49.10;99744.42;1727329;81;21010;-87
2021/06/13 08:03:50;;;;;;;1.10;1.00;;;;;;;25.58;50.10;99740.45;1668512;84;20988;-88
2021/06/13 08:06:19;;;;;;;1.75;1.17;;;;;;;25.84;48.66;99729.45;1701407;82;21023;-88
2021/06/13 08:08:48;;;;;;;2.10;1.20;;;;;;;26.04;48.49;99730.69;1690027;83;21072;-89
2021/06/13 08:11:15;;;;;;;1.67;1.20;;;;;;;26.14;47.33;99728.47;1723173;81;21505;-88
2021/06/13 08:13:42;;;;;;;0.75;0.68;;;;;;;26.13;47.61;99735.86;1723111;83;21401;-88
2021/06/13 08:16:09;;;;;;;2.40;1.00;;;;;;;26.05;49.42;99723.08;1722959;81;20997;-87
2021/06/13 08:18:35;;;;;;;1.05;0.95;;;;;;;25.91;50.10;99730.88;1724154;83;20850;-88
2021/06/13 08:21:03;;;;;;;1.25;0.98;;;;;;;25.74;50.71;99727.68;1723238;81;21064;-88
2021/06/13 08:23:31;;;;;;;1.15;0.93;;;;;;;25.60;51.82;99736.06;1723386;83;21076;-88
2021/06/13 08:25:59;;;;;;;1.50;1.05;;;;;;;25.42;53.07;99740.83;1723673;83;21009;-90
2021/06/13 08:28:26;;;;;;;1.02;0.90;;;;;;;25.26;61.30;99744.80;1723320;83;21507;-88
2021/06/13 08:30:52;;;;;;;0.80;0.80;;;;;;;24.29;63.64;99742.16;1723483;81;20989;-88
2021/06/13 08:33:19;;;;;;;1.27;0.90;;;;;;;23.20;66.97;99757.55;1723443;83;20993;-88
2021/06/13 08:35:45;;;;;;;1.50;0.68;;;;;;;22.35;71.16;99755.25;1723570;81;21498;-88
2021/06/13 08:38:20;;;;;;;2.20;1.00;;;;;;;21.76;74.73;99749.97;1721344;83;21419;-89
2021/06/13 08:40:41;;;;;;;1.00;0.70;;;;;;;21.28;76.35;99748.09;1721551;81;20988;-88
2021/06/13 08:43:08;;;;;;;1.00;0.90;;;;;;;20.81;78.00;99743.61;1722826;83;20973;-88
2021/06/13 08:45:35;;;;;;;0.60;0.60;;;;;;;20.39;79.32;99733.97;1722693;83;21004;-88
2021/06/13 08:48:04;;;;;;;0.70;0.60;;;;;;;20.05;81.25;99730.62;1724896;81;21009;-88
2021/06/13 08:50:33;;;;;;;1.75;1.02;;;;;;;19.85;84.20;99739.45;1723057;83;21403;-88
2021/06/13 08:53:00;;;;;;;0.90;0.75;;;;;;;19.68;86.93;99744.22;1722944;83;21795;-89
2021/06/13 08:55:28;;;;;;;2.17;1.17;;;;;;;19.58;87.99;99753.02;1723068;83;20976;-88
2021/06/13 08:57:57;;;;;;;1.85;1.07;;;;;;;19.46;89.81;99768.33;1723275;81;20977;-88
2021/06/13 09:00:29;;;;;;;0.75;0.75;;;;;;;19.37;91.08;99772.67;1722653;83;21457;-88
2021/06/13 09:02:56;;;;;;;1.95;1.02;;;;;;;19.30;91.88;99765.55;1722540;81;21064;-88
2021/06/13 09:05:24;;;;;;;1.75;0.88;;;;;;;19.21;89.70;99752.44;1708921;83;21572;-87
2021/06/13 09:07:59;;;;;;;0.80;0.72;;;;;;;19.21;89.70;99752.44;1693725;83;20977;-88
2021/06/13 09:10:29;;;;;;;0.80;0.62;;;;;;;19.25;89.39;99756.12;1693680;84;20992;-88
2021/06/13 09:13:08;;;;;;;0.68;0.68;;;;;;;19.25;88.14;99752.77;1716576;83;21064;-87
2021/06/13 09:15:42;;;;;;;0.95;0.65;;;;;;;19.25;88.03;99744.45;1707279;83;21029;-87
2021/06/13 09:18:43;;;;;;;4.15;1.12;;;;;;;19.24;88.53;99755.32;1690954;83;21404;-88
2021/06/13 09:21:22;;;;;;;3.10;0.75;;;;;;;19.27;88.84;99785.66;1720884;81;21005;-87
2021/06/13 09:23:49;;;;;;;0.78;0.50;;;;;;;19.20;90.18;99755.80;1720847;83;21526;-87
2021/06/13 09:26:17;;;;;;;0.68;0.68;;;;;;;19.09;91.92;99750.56;1721703;81;21009;-87
2021/06/13 09:28:45;;;;;;;1.92;1.20;;;;;;;19.10;96.41;99738.31;1722097;83;21024;-87
2021/06/13 09:31:26;;;;;;;1.70;1.20;;;;;;;19.16;98.44;99735.50;1721793;81;21037;-87
2021/06/13 09:33:55;;;;;;;1.10;0.80;;;;;;;19.16;98.44;99735.50;1722087;83;21138;-87
2021/06/13 09:36:25;;;;;;;0.78;0.72;;;;;;;19.24;99.37;99734.55;1721150;81;21514;-87
2021/06/13 09:38:57;;;;;;;2.50;1.50;;;;;;;19.29;99.22;99725.97;1722178;83;21519;-86
2021/06/13 09:41:25;;;;;;;2.10;0.90;;;;;;;19.32;100.00;99730.80;1719185;81;21004;-86
2021/06/13 09:44:00;;;;;;;0.88;0.80;;;;;;;19.50;100.00;99748.46;1715230;83;21044;-87
2021/06/13 09:46:29;;;;;;;1.75;1.42;;;;;;;19.50;100.00;99748.46;1715318;82;21016;-87
2021/06/13 09:49:04;;;;;;;1.00;0.93;;;;;;;19.66;100.00;99753.44;1715154;83;21574;-87
2021/06/13 09:51:33;;;;;;;2.87;1.32;;;;;;;19.91;100.00;99775.47;1715253;82;21726;-87
2021/06/13 09:54:04;;;;;;;2.60;1.25;;;;;;;20.24;100.00;99765.93;1715165;83;21555;-86
2021/06/13 09:56:35;;;;;;;1.30;1.10;;;;;;;20.53;100.00;99768.77;1714433;82;21034;-86
2021/06/13 09:59:05;;;;;;;1.10;1.00;;;;;;;20.79;100.00;99756.45;1710582;83;21083;-86
2021/06/13 10:01:38;;;;;;;1.37;0.90;;;;;;;20.99;98.47;99747.56;1718656;83;21012;-86
2021/06/13 10:04:08;;;;;;;1.17;1.05;;;;;;;21.12;97.50;99740.46;1726101;83;21012;-86
2021/06/13 10:06:38;;;;;;;1.25;0.78;;;;;;;21.27;96.65;99731.21;1719526;83;21027;-84
2021/06/13 10:09:06;;;;;;;1.55;1.10;;;;;;;21.38;95.02;99728.61;1698470;84;21048;-85
2021/06/13 10:11:36;;;;;;;1.90;1.30;;;;;;;21.36;93.27;99722.03;1706626;82;21434;-85
2021/06/13 10:14:05;;;;;;;3.02;1.17;;;;;;;21.34;93.33;99727.17;1748725;82;20986;-82
2021/06/13 10:16:35;;;;;;;1.02;0.93;;;;;;;21.33;93.33;99723.37;1721627;81;21016;-85
2021/06/13 10:19:08;;;;;;;1.05;0.95;;;;;;;21.32;93.20;99714.23;1699248;84;21459;-85
2021/06/13 10:21:57;;;;;;;3.50;1.10;;;;;;;21.39;92.89;99717.17;1705046;83;21017;-85
2021/06/13 10:24:30;;;;;;;0.68;0.68;;;;;;;21.45;90.38;99711.51;1726638;83;21016;-85
2021/06/13 10:27:06;;;;;;;;;;;;;;;21.45;89.94;99697.61;1731963;83;20932;-84
2021/06/13 10:29:35;;;;;;;0.98;0.82;;;;;;;21.59;89.53;99689.31;1728471;82;20146;-85
2021/06/13 10:32:06;;;;;;;1.15;1.05;;;;;;;21.83;89.53;99687.48;1711481;82;21434;-85
2021/06/13 10:34:33;;;;;;;2.05;1.07;;;;;;;22.25;90.15;99690.70;1711401;83;21014;-85
2021/06/13 10:37:05;;;;;;;1.52;1.10;;;;;;;22.65;88.46;99690.64;1711465;82;21077;-85
2021/06/13 10:39:33;;;;;;;1.80;1.47;;;;;;;23.02;87.00;99680.15;1711658;83;21047;-85
2021/06/13 10:42:03;;;;;;;1.77;1.27;;;;;;;23.46;85.34;99680.73;1713134;82;20998;-85
2021/06/13 10:44:31;;;;;;;1.50;0.87;;;;;;;23.91;84.37;99685.71;1729301;83;21564;-85
2021/06/13 10:47:11;;;;;;;1.10;1.00;;;;;;;24.40;81.05;99689.95;1708063;83;21005;-85
2021/06/13 10:49:40;;;;;;;1.62;1.37;;;;;;;24.82;77.37;99696.94;1728809;83;21105;-86
2021/06/13 10:52:19;;;;;;;1.60;1.32;;;;;;;25.08;72.87;99709.00;1712600;83;21478;-85
2021/06/13 10:54:59;;;;;;;1.40;1.30;;;;;;;25.15;72.25;99709.02;1700277;84;20997;-85
2021/06/13 10:57:39;;;;;;;3.12;1.55;;;;;;;25.08;71.32;99711.19;1699874;84;21434;-85
2021/06/13 11:00:23;;;;;;;1.37;1.22;;;;;;;24.98;71.93;99715.36;1688819;84;21056;-86
2021/06/13 11:02:57;;;;;;;2.75;1.60;;;;;;;24.95;73.53;99718.92;1712183;82;20993;-86
2021/06/13 11:05:42;;;;;;;1.77;1.25;;;;;;;24.84;73.93;99722.49;1739927;82;21023;-86
2021/06/13 11:08:11;;;;;;;2.27;1.70;;;;;;;24.79;74.57;99720.08;1738281;82;21018;-86
2021/06/13 11:10:40;;;;;;;2.58;1.32;;;;;;;24.83;73.43;99725.70;1726824;81;21032;-86
2021/06/13 11:13:15;;;;;;;1.10;1.00;;;;;;;24.84;72.65;99733.67;1694462;84;20988;-92
2021/06/13 11:15:48;;;;;;;1.35;1.10;;;;;;;24.80;72.61;99738.46;1670031;84;21403;-94
2021/06/13 11:18:27;;;;;;;;;;;;;;;24.80;71.68;99744.05;1697067;84;21386;-94
2021/06/13 11:21:10;;;;;;;1.60;1.25;;;;;;;24.79;71.15;99764.78;1722688;82;20123;-92
2021/06/13 11:23:40;;;;;;;1.45;1.32;;;;;;;24.63;70.53;99758.13;1724758;83;21052;-93
2021/06/13 11:26:10;;;;;;;1.62;1.40;;;;;;;24.49;70.44;99742.70;1723885;83;21000;-93
2021/06/13 11:28:45;;;;;;;1.30;1.20;;;;;;;24.40;70.30;99747.80;1730868;82;20994;-92
2021/06/13 11:31:18;;;;;;;1.85;1.30;;;;;;;24.36;69.54;99750.58;1696358;81;21533;-94
2021/06/13 11:33:57;;;;;;;1.70;1.57;;;;;;;24.37;68.87;99750.77;1710706;83;21073;-94
2021/06/13 11:36:36;;;;;;;1.35;1.25;;;;;;;24.36;69.09;99744.20;1711362;82;21010;-96
2021/06/13 11:39:10;;;;;;;1.00;1.00;;;;;;;24.22;70.93;99750.48;1704219;83;21006;-95
2021/06/13 11:41:43;;;;;;;1.12;0.98;;;;;;;23.95;72.37;99740.92;1719965;81;21342;-95
2021/06/13 11:44:26;;;;;;;1.55;1.27;;;;;;;23.58;73.24;99740.39;1698378;82;21029;-96